sensor_id;sensor_type;location;lat;lon;timestamp;temperature;humidity
47805;DHT22;33568;45.286;9.900;2023-11-21T00:00:04;12.50;97.90
47805;DHT22;33568;45.286;9.900;2023-11-21T00:02:39;12.50;98.00
47805;DHT22;33568;45.286;9.900;2023-11-21T00:05:09;12.50;98.00
47805;DHT22;33568;45.286;9.900;2023-11-21T00:07:37;12.50;98.00
47805;DHT22;33568;45.286;9.900;2023-11-21T00:10:04;12.50;98.10
47805;DHT22;33568;45.286;9.900;2023-11-21T00:12:34;12.50;98.20
47805;DHT22;33568;45.286;9.900;2023-11-21T00:15:01;12.60;98.20
47805;DHT22;33568;45.286;9.900;2023-11-21T00:17:29;12.60;98.20
47805;DHT22;33568;45.286;9.900;2023-11-21T00:19:55;12.50;98.40
47805;DHT22;33568;45.286;9.900;2023-11-21T00:22:22;12.50;98.50
47805;DHT22;33568;45.286;9.900;2023-11-21T00:24:48;12.50;98.60
47805;DHT22;33568;45.286;9.900;2023-11-21T00:27:15;12.60;98.70
47805;DHT22;33568;45.286;9.900;2023-11-21T00:29:41;12.50;99.20
47805;DHT22;33568;45.286;9.900;2023-11-21T00:32:08;12.50;98.80
47805;DHT22;33568;45.286;9.900;2023-11-21T00:34:35;12.50;99.40
47805;DHT22;33568;45.286;9.900;2023-11-21T00:37:01;12.60;98.80
47805;DHT22;33568;45.286;9.900;2023-11-21T00:39:28;12.50;99.60
47805;DHT22;33568;45.286;9.900;2023-11-21T00:41:55;12.40;99.00
47805;DHT22;33568;45.286;9.900;2023-11-21T00:44:21;12.40;99.90
47805;DHT22;33568;45.286;9.900;2023-11-21T00:46:48;12.50;99.10
47805;DHT22;33568;45.286;9.900;2023-11-21T00:49:14;12.50;99.10
47805;DHT22;33568;45.286;9.900;2023-11-21T00:51:40;12.50;99.10
47805;DHT22;33568;45.286;9.900;2023-11-21T00:54:07;12.50;99.10
47805;DHT22;33568;45.286;9.900;2023-11-21T00:56:33;12.50;99.20
47805;DHT22;33568;45.286;9.900;2023-11-21T00:59:00;12.60;99.30
47805;DHT22;33568;45.286;9.900;2023-11-21T01:01:26;12.50;99.30
47805;DHT22;33568;45.286;9.900;2023-11-21T01:03:52;12.40;99.70
47805;DHT22;33568;45.286;9.900;2023-11-21T01:06:20;12.40;99.50
47805;DHT22;33568;45.286;9.900;2023-11-21T01:08:47;12.40;99.40
47805;DHT22;33568;45.286;9.900;2023-11-21T01:11:14;12.40;99.30
47805;DHT22;33568;45.286;9.900;2023-11-21T01:13:41;12.40;99.50
47805;DHT22;33568;45.286;9.900;2023-11-21T01:16:08;12.40;99.20
47805;DHT22;33568;45.286;9.900;2023-11-21T01:18:35;12.50;99.10
47805;DHT22;33568;45.286;9.900;2023-11-21T01:21:02;12.50;98.90
47805;DHT22;33568;45.286;9.900;2023-11-21T01:23:28;12.60;98.80
47805;DHT22;33568;45.286;9.900;2023-11-21T01:25:56;12.50;98.90
47805;DHT22;33568;45.286;9.900;2023-11-21T01:28:23;12.50;98.80
47805;DHT22;33568;45.286;9.900;2023-11-21T01:30:50;12.60;98.70
47805;DHT22;33568;45.286;9.900;2023-11-21T01:33:16;12.60;98.60
47805;DHT22;33568;45.286;9.900;2023-11-21T01:35:43;12.60;98.50
47805;DHT22;33568;45.286;9.900;2023-11-21T01:38:09;12.60;98.50
47805;DHT22;33568;45.286;9.900;2023-11-21T01:40:35;12.60;98.40
47805;DHT22;33568;45.286;9.900;2023-11-21T01:43:02;12.60;98.40
47805;DHT22;33568;45.286;9.900;2023-11-21T01:45:31;12.50;98.50
47805;DHT22;33568;45.286;9.900;2023-11-21T01:48:00;12.60;98.70
47805;DHT22;33568;45.286;9.900;2023-11-21T01:50:28;12.50;98.30
47805;DHT22;33568;45.286;9.900;2023-11-21T01:52:55;12.50;98.30
47805;DHT22;33568;45.286;9.900;2023-11-21T01:55:23;12.50;98.30
47805;DHT22;33568;45.286;9.900;2023-11-21T01:57:50;12.60;98.30
47805;DHT22;33568;45.286;9.900;2023-11-21T02:00:17;12.60;98.20
47805;DHT22;33568;45.286;9.900;2023-11-21T02:02:46;12.60;98.00
47805;DHT22;33568;45.286;9.900;2023-11-21T02:05:17;12.60;98.00
47805;DHT22;33568;45.286;9.900;2023-11-21T02:07:45;12.70;97.90
47805;DHT22;33568;45.286;9.900;2023-11-21T02:10:15;12.70;97.80
47805;DHT22;33568;45.286;9.900;2023-11-21T02:12:43;12.70;97.70
47805;DHT22;33568;45.286;9.900;2023-11-21T02:15:12;12.70;97.60
47805;DHT22;33568;45.286;9.900;2023-11-21T02:17:47;12.80;97.60
47805;DHT22;33568;45.286;9.900;2023-11-21T02:20:18;12.70;97.50
47805;DHT22;33568;45.286;9.900;2023-11-21T02:22:52;12.80;97.50
47805;DHT22;33568;45.286;9.900;2023-11-21T02:25:25;12.80;97.40
47805;DHT22;33568;45.286;9.900;2023-11-21T02:27:57;12.70;97.40
47805;DHT22;33568;45.286;9.900;2023-11-21T02:30:25;12.70;97.40
47805;DHT22;33568;45.286;9.900;2023-11-21T02:32:52;12.70;97.30
47805;DHT22;33568;45.286;9.900;2023-11-21T02:35:23;12.70;97.30
47805;DHT22;33568;45.286;9.900;2023-11-21T02:37:52;12.70;97.30
47805;DHT22;33568;45.286;9.900;2023-11-21T02:40:19;12.70;97.30
47805;DHT22;33568;45.286;9.900;2023-11-21T02:42:51;12.70;97.30
47805;DHT22;33568;45.286;9.900;2023-11-21T02:45:19;12.70;97.30
47805;DHT22;33568;45.286;9.900;2023-11-21T02:47:47;12.70;97.20
47805;DHT22;33568;45.286;9.900;2023-11-21T02:50:15;12.70;97.20
47805;DHT22;33568;45.286;9.900;2023-11-21T02:52:42;12.70;97.20
47805;DHT22;33568;45.286;9.900;2023-11-21T02:55:08;12.70;97.20
47805;DHT22;33568;45.286;9.900;2023-11-21T02:57:35;12.60;97.20
47805;DHT22;33568;45.286;9.900;2023-11-21T03:00:01;12.70;97.20
47805;DHT22;33568;45.286;9.900;2023-11-21T03:02:30;12.60;97.10
47805;DHT22;33568;45.286;9.900;2023-11-21T03:04:57;12.70;97.20
47805;DHT22;33568;45.286;9.900;2023-11-21T03:07:23;12.70;97.20
47805;DHT22;33568;45.286;9.900;2023-11-21T03:09:49;12.70;97.10
47805;DHT22;33568;45.286;9.900;2023-11-21T03:12:16;12.70;97.10
47805;DHT22;33568;45.286;9.900;2023-11-21T03:14:42;12.70;97.20
47805;DHT22;33568;45.286;9.900;2023-11-21T03:17:09;12.70;97.20
47805;DHT22;33568;45.286;9.900;2023-11-21T03:19:35;12.70;97.20
47805;DHT22;33568;45.286;9.900;2023-11-21T03:22:02;12.70;97.20
47805;DHT22;33568;45.286;9.900;2023-11-21T03:24:28;12.60;97.10
47805;DHT22;33568;45.286;9.900;2023-11-21T03:26:54;12.70;97.20
47805;DHT22;33568;45.286;9.900;2023-11-21T03:29:21;12.70;97.20
47805;DHT22;33568;45.286;9.900;2023-11-21T03:31:48;12.70;97.20
47805;DHT22;33568;45.286;9.900;2023-11-21T03:34:23;12.70;97.20
47805;DHT22;33568;45.286;9.900;2023-11-21T03:36:50;12.70;97.10
47805;DHT22;33568;45.286;9.900;2023-11-21T03:39:16;12.70;97.00
47805;DHT22;33568;45.286;9.900;2023-11-21T03:41:43;12.70;97.00
47805;DHT22;33568;45.286;9.900;2023-11-21T03:44:09;12.70;96.90
47805;DHT22;33568;45.286;9.900;2023-11-21T03:46:36;12.70;97.00
47805;DHT22;33568;45.286;9.900;2023-11-21T03:49:03;12.70;97.10
47805;DHT22;33568;45.286;9.900;2023-11-21T03:51:29;12.60;97.20
47805;DHT22;33568;45.286;9.900;2023-11-21T03:53:55;12.70;97.10
47805;DHT22;33568;45.286;9.900;2023-11-21T03:56:22;12.70;97.00
47805;DHT22;33568;45.286;9.900;2023-11-21T03:58:48;12.70;96.90
47805;DHT22;33568;45.286;9.900;2023-11-21T04:01:24;12.70;96.90
47805;DHT22;33568;45.286;9.900;2023-11-21T04:03:51;12.70;96.80
47805;DHT22;33568;45.286;9.900;2023-11-21T04:06:17;12.70;96.90
47805;DHT22;33568;45.286;9.900;2023-11-21T04:08:44;12.60;96.80
47805;DHT22;33568;45.286;9.900;2023-11-21T04:11:12;12.60;97.00
47805;DHT22;33568;45.286;9.900;2023-11-21T04:13:41;12.40;97.00
47805;DHT22;33568;45.286;9.900;2023-11-21T04:16:08;12.40;97.10
47805;DHT22;33568;45.286;9.900;2023-11-21T04:18:36;12.40;97.10
47805;DHT22;33568;45.286;9.900;2023-11-21T04:21:05;12.40;97.10
47805;DHT22;33568;45.286;9.900;2023-11-21T04:23:31;12.40;97.10
47805;DHT22;33568;45.286;9.900;2023-11-21T04:25:58;12.40;97.30
47805;DHT22;33568;45.286;9.900;2023-11-21T04:28:25;12.40;97.10
47805;DHT22;33568;45.286;9.900;2023-11-21T04:30:51;12.50;97.00
47805;DHT22;33568;45.286;9.900;2023-11-21T04:33:17;12.50;97.00
47805;DHT22;33568;45.286;9.900;2023-11-21T04:35:44;12.60;97.00
47805;DHT22;33568;45.286;9.900;2023-11-21T04:38:11;12.60;96.90
47805;DHT22;33568;45.286;9.900;2023-11-21T04:40:37;12.70;96.90
47805;DHT22;33568;45.286;9.900;2023-11-21T04:43:03;12.70;96.80
47805;DHT22;33568;45.286;9.900;2023-11-21T04:45:30;12.60;96.90
47805;DHT22;33568;45.286;9.900;2023-11-21T04:47:56;12.70;96.80
47805;DHT22;33568;45.286;9.900;2023-11-21T04:50:23;12.60;96.60
47805;DHT22;33568;45.286;9.900;2023-11-21T04:52:49;12.70;96.70
47805;DHT22;33568;45.286;9.900;2023-11-21T04:55:15;12.60;96.70
47805;DHT22;33568;45.286;9.900;2023-11-21T04:57:42;12.70;96.60
47805;DHT22;33568;45.286;9.900;2023-11-21T05:00:12;12.60;96.50
47805;DHT22;33568;45.286;9.900;2023-11-21T05:02:40;12.70;96.60
47805;DHT22;33568;45.286;9.900;2023-11-21T05:05:07;12.60;96.60
47805;DHT22;33568;45.286;9.900;2023-11-21T05:07:36;12.60;96.60
47805;DHT22;33568;45.286;9.900;2023-11-21T05:10:07;12.70;96.50
47805;DHT22;33568;45.286;9.900;2023-11-21T05:12:36;12.70;96.50
47805;DHT22;33568;45.286;9.900;2023-11-21T05:15:07;12.70;96.50
47805;DHT22;33568;45.286;9.900;2023-11-21T05:17:39;12.80;96.50
47805;DHT22;33568;45.286;9.900;2023-11-21T05:20:10;12.80;96.40
47805;DHT22;33568;45.286;9.900;2023-11-21T05:22:37;12.80;96.40
47805;DHT22;33568;45.286;9.900;2023-11-21T05:25:04;12.80;96.50
47805;DHT22;33568;45.286;9.900;2023-11-21T05:27:31;12.70;96.40
47805;DHT22;33568;45.286;9.900;2023-11-21T05:29:57;12.70;96.50
47805;DHT22;33568;45.286;9.900;2023-11-21T05:32:24;12.70;96.50
47805;DHT22;33568;45.286;9.900;2023-11-21T05:34:52;12.70;96.60
47805;DHT22;33568;45.286;9.900;2023-11-21T05:37:19;12.60;96.70
47805;DHT22;33568;45.286;9.900;2023-11-21T05:39:45;12.60;96.70
47805;DHT22;33568;45.286;9.900;2023-11-21T05:42:13;12.50;96.80
47805;DHT22;33568;45.286;9.900;2023-11-21T05:44:41;12.50;96.70
47805;DHT22;33568;45.286;9.900;2023-11-21T05:47:08;12.50;96.80
47805;DHT22;33568;45.286;9.900;2023-11-21T05:49:35;12.50;96.70
47805;DHT22;33568;45.286;9.900;2023-11-21T05:52:01;12.50;96.70
47805;DHT22;33568;45.286;9.900;2023-11-21T05:54:28;12.60;96.70
47805;DHT22;33568;45.286;9.900;2023-11-21T05:56:54;12.50;96.70
47805;DHT22;33568;45.286;9.900;2023-11-21T05:59:20;12.50;96.70
47805;DHT22;33568;45.286;9.900;2023-11-21T06:01:47;12.50;96.70
47805;DHT22;33568;45.286;9.900;2023-11-21T06:04:13;12.50;96.70
47805;DHT22;33568;45.286;9.900;2023-11-21T06:06:40;12.50;96.70
47805;DHT22;33568;45.286;9.900;2023-11-21T06:09:06;12.50;96.60
47805;DHT22;33568;45.286;9.900;2023-11-21T06:11:35;12.60;96.50
47805;DHT22;33568;45.286;9.900;2023-11-21T06:14:02;12.60;96.50
47805;DHT22;33568;45.286;9.900;2023-11-21T06:16:28;12.60;96.50
47805;DHT22;33568;45.286;9.900;2023-11-21T06:18:55;12.50;96.40
47805;DHT22;33568;45.286;9.900;2023-11-21T06:21:21;12.50;96.60
47805;DHT22;33568;45.286;9.900;2023-11-21T06:23:47;12.60;96.50
47805;DHT22;33568;45.286;9.900;2023-11-21T06:26:14;12.60;96.50
47805;DHT22;33568;45.286;9.900;2023-11-21T06:28:40;12.60;96.60
47805;DHT22;33568;45.286;9.900;2023-11-21T06:31:07;12.60;96.50
47805;DHT22;33568;45.286;9.900;2023-11-21T06:33:33;12.60;96.50
47805;DHT22;33568;45.286;9.900;2023-11-21T06:36:00;12.50;96.30
47805;DHT22;33568;45.286;9.900;2023-11-21T06:38:29;12.60;96.40
47805;DHT22;33568;45.286;9.900;2023-11-21T06:40:56;12.60;96.30
47805;DHT22;33568;45.286;9.900;2023-11-21T06:43:24;12.60;96.00
47805;DHT22;33568;45.286;9.900;2023-11-21T06:45:50;12.70;96.30
47805;DHT22;33568;45.286;9.900;2023-11-21T06:48:16;12.60;96.20
47805;DHT22;33568;45.286;9.900;2023-11-21T06:50:43;12.60;96.30
47805;DHT22;33568;45.286;9.900;2023-11-21T06:53:10;12.70;96.30
47805;DHT22;33568;45.286;9.900;2023-11-21T06:55:36;12.70;96.60
47805;DHT22;33568;45.286;9.900;2023-11-21T06:58:02;12.70;96.40
47805;DHT22;33568;45.286;9.900;2023-11-21T07:00:29;12.60;96.40
47805;DHT22;33568;45.286;9.900;2023-11-21T07:02:55;12.70;96.40
47805;DHT22;33568;45.286;9.900;2023-11-21T07:05:22;12.60;96.50
47805;DHT22;33568;45.286;9.900;2023-11-21T07:07:49;12.60;96.50
47805;DHT22;33568;45.286;9.900;2023-11-21T07:10:16;12.60;96.70
47805;DHT22;33568;45.286;9.900;2023-11-21T07:12:43;12.50;96.80
47805;DHT22;33568;45.286;9.900;2023-11-21T07:15:09;12.50;97.20
47805;DHT22;33568;45.286;9.900;2023-11-21T07:17:36;12.40;97.30
47805;DHT22;33568;45.286;9.900;2023-11-21T07:20:03;12.50;97.40
47805;DHT22;33568;45.286;9.900;2023-11-21T07:22:30;12.50;97.50
47805;DHT22;33568;45.286;9.900;2023-11-21T07:24:56;12.50;97.50
47805;DHT22;33568;45.286;9.900;2023-11-21T07:27:23;12.50;97.50
47805;DHT22;33568;45.286;9.900;2023-11-21T07:29:49;12.60;97.50
47805;DHT22;33568;45.286;9.900;2023-11-21T07:32:16;12.60;97.40
47805;DHT22;33568;45.286;9.900;2023-11-21T07:34:43;12.60;97.40
47805;DHT22;33568;45.286;9.900;2023-11-21T07:37:09;12.70;97.50
47805;DHT22;33568;45.286;9.900;2023-11-21T07:39:36;12.70;97.70
47805;DHT22;33568;45.286;9.900;2023-11-21T07:42:08;12.70;97.40
47805;DHT22;33568;45.286;9.900;2023-11-21T07:44:35;12.80;97.40
47805;DHT22;33568;45.286;9.900;2023-11-21T07:47:01;12.80;97.40
47805;DHT22;33568;45.286;9.900;2023-11-21T07:49:27;12.70;97.30
47805;DHT22;33568;45.286;9.900;2023-11-21T07:51:54;12.80;97.40
47805;DHT22;33568;45.286;9.900;2023-11-21T07:54:20;12.70;97.30
47805;DHT22;33568;45.286;9.900;2023-11-21T07:56:47;12.70;97.30
47805;DHT22;33568;45.286;9.900;2023-11-21T07:59:13;12.80;97.20
47805;DHT22;33568;45.286;9.900;2023-11-21T08:01:40;12.80;97.10
47805;DHT22;33568;45.286;9.900;2023-11-21T08:04:06;12.80;97.00
47805;DHT22;33568;45.286;9.900;2023-11-21T08:06:33;12.90;97.10
47805;DHT22;33568;45.286;9.900;2023-11-21T08:08:59;12.90;96.70
47805;DHT22;33568;45.286;9.900;2023-11-21T08:11:25;13.00;96.90
47805;DHT22;33568;45.286;9.900;2023-11-21T08:13:55;13.00;96.30
47805;DHT22;33568;45.286;9.900;2023-11-21T08:16:21;13.00;96.70
47805;DHT22;33568;45.286;9.900;2023-11-21T08:18:48;13.10;96.50
47805;DHT22;33568;45.286;9.900;2023-11-21T08:21:14;13.10;96.40
47805;DHT22;33568;45.286;9.900;2023-11-21T08:23:40;13.20;96.30
47805;DHT22;33568;45.286;9.900;2023-11-21T08:26:07;13.20;96.10
47805;DHT22;33568;45.286;9.900;2023-11-21T08:28:34;13.30;96.00
47805;DHT22;33568;45.286;9.900;2023-11-21T08:31:01;13.30;95.90
47805;DHT22;33568;45.286;9.900;2023-11-21T08:33:27;13.30;95.80
47805;DHT22;33568;45.286;9.900;2023-11-21T08:35:54;13.30;95.70
47805;DHT22;33568;45.286;9.900;2023-11-21T08:38:21;13.40;95.70
47805;DHT22;33568;45.286;9.900;2023-11-21T08:40:47;13.50;95.60
47805;DHT22;33568;45.286;9.900;2023-11-21T08:43:14;13.50;95.30
47805;DHT22;33568;45.286;9.900;2023-11-21T08:45:42;13.50;95.20
47805;DHT22;33568;45.286;9.900;2023-11-21T08:48:08;13.60;94.90
47805;DHT22;33568;45.286;9.900;2023-11-21T08:50:35;13.60;94.80
47805;DHT22;33568;45.286;9.900;2023-11-21T08:53:01;13.60;94.70
47805;DHT22;33568;45.286;9.900;2023-11-21T08:55:27;13.70;94.70
47805;DHT22;33568;45.286;9.900;2023-11-21T08:57:54;13.70;94.70
47805;DHT22;33568;45.286;9.900;2023-11-21T09:00:21;13.70;94.50
47805;DHT22;33568;45.286;9.900;2023-11-21T09:02:48;13.70;94.50
47805;DHT22;33568;45.286;9.900;2023-11-21T09:05:14;13.80;94.50
47805;DHT22;33568;45.286;9.900;2023-11-21T09:07:42;13.80;94.20
47805;DHT22;33568;45.286;9.900;2023-11-21T09:10:09;13.80;94.50
47805;DHT22;33568;45.286;9.900;2023-11-21T09:12:37;13.90;94.40
47805;DHT22;33568;45.286;9.900;2023-11-21T09:15:07;13.90;94.30
47805;DHT22;33568;45.286;9.900;2023-11-21T09:17:36;14.00;94.20
47805;DHT22;33568;45.286;9.900;2023-11-21T09:20:03;13.90;94.10
47805;DHT22;33568;45.286;9.900;2023-11-21T09:22:32;14.00;94.00
47805;DHT22;33568;45.286;9.900;2023-11-21T09:24:58;14.10;94.00
47805;DHT22;33568;45.286;9.900;2023-11-21T09:27:25;14.30;93.80
47805;DHT22;33568;45.286;9.900;2023-11-21T09:29:54;14.40;93.60
47805;DHT22;33568;45.286;9.900;2023-11-21T09:32:21;14.40;93.40
47805;DHT22;33568;45.286;9.900;2023-11-21T09:34:49;14.40;93.20
47805;DHT22;33568;45.286;9.900;2023-11-21T09:37:16;14.50;93.20
47805;DHT22;33568;45.286;9.900;2023-11-21T09:39:43;14.50;93.20
47805;DHT22;33568;45.286;9.900;2023-11-21T09:42:10;14.60;93.20
47805;DHT22;33568;45.286;9.900;2023-11-21T09:44:44;14.50;92.50
47805;DHT22;33568;45.286;9.900;2023-11-21T09:47:15;14.60;93.20
47805;DHT22;33568;45.286;9.900;2023-11-21T09:49:48;14.60;93.20
47805;DHT22;33568;45.286;9.900;2023-11-21T09:52:24;14.60;93.20
47805;DHT22;33568;45.286;9.900;2023-11-21T09:54:52;14.50;92.90
47805;DHT22;33568;45.286;9.900;2023-11-21T09:57:20;14.40;93.30
47805;DHT22;33568;45.286;9.900;2023-11-21T09:59:51;14.30;93.10
47805;DHT22;33568;45.286;9.900;2023-11-21T10:02:27;14.20;93.30
47805;DHT22;33568;45.286;9.900;2023-11-21T10:04:57;14.20;93.30
47805;DHT22;33568;45.286;9.900;2023-11-21T10:07:25;14.20;93.40
47805;DHT22;33568;45.286;9.900;2023-11-21T10:09:53;14.30;93.40
47805;DHT22;33568;45.286;9.900;2023-11-21T10:12:20;14.30;93.40
47805;DHT22;33568;45.286;9.900;2023-11-21T10:14:48;14.30;93.20
47805;DHT22;33568;45.286;9.900;2023-11-21T10:17:18;14.20;93.20
47805;DHT22;33568;45.286;9.900;2023-11-21T10:19:47;14.20;93.10
47805;DHT22;33568;45.286;9.900;2023-11-21T10:22:17;14.20;92.90
47805;DHT22;33568;45.286;9.900;2023-11-21T10:24:45;14.20;92.90
47805;DHT22;33568;45.286;9.900;2023-11-21T10:27:12;14.30;92.80
47805;DHT22;33568;45.286;9.900;2023-11-21T10:29:39;14.30;92.80
47805;DHT22;33568;45.286;9.900;2023-11-21T10:32:06;14.30;92.70
47805;DHT22;33568;45.286;9.900;2023-11-21T10:34:33;14.40;93.00
47805;DHT22;33568;45.286;9.900;2023-11-21T10:37:13;14.50;92.60
47805;DHT22;33568;45.286;9.900;2023-11-21T10:39:41;14.70;92.30
47805;DHT22;33568;45.286;9.900;2023-11-21T10:42:10;15.10;92.00
47805;DHT22;33568;45.286;9.900;2023-11-21T10:44:36;15.50;91.50
47805;DHT22;33568;45.286;9.900;2023-11-21T10:47:03;16.00;90.50
47805;DHT22;33568;45.286;9.900;2023-11-21T10:49:31;16.70;90.10
47805;DHT22;33568;45.286;9.900;2023-11-21T10:51:58;16.80;88.50
47805;DHT22;33568;45.286;9.900;2023-11-21T10:54:25;16.60;86.00
47805;DHT22;33568;45.286;9.900;2023-11-21T10:56:59;16.70;88.90
47805;DHT22;33568;45.286;9.900;2023-11-21T10:59:30;16.80;87.60
47805;DHT22;33568;45.286;9.900;2023-11-21T11:02:01;16.90;87.10
47805;DHT22;33568;45.286;9.900;2023-11-21T11:04:32;17.10;86.70
47805;DHT22;33568;45.286;9.900;2023-11-21T11:07:03;17.50;86.40
47805;DHT22;33568;45.286;9.900;2023-11-21T11:09:31;17.80;84.80
47805;DHT22;33568;45.286;9.900;2023-11-21T11:12:04;17.80;84.20
47805;DHT22;33568;45.286;9.900;2023-11-21T11:14:32;17.70;84.40
47805;DHT22;33568;45.286;9.900;2023-11-21T11:17:01;17.40;85.10
47805;DHT22;33568;45.286;9.900;2023-11-21T11:19:28;17.10;85.60
47805;DHT22;33568;45.286;9.900;2023-11-21T11:24:36;16.60;86.70
47805;DHT22;33568;45.286;9.900;2023-11-21T11:30:23;16.30;87.80
47805;DHT22;33568;45.286;9.900;2023-11-21T11:38:37;15.80;88.40
47805;DHT22;33568;45.286;9.900;2023-11-21T11:41:06;15.70;89.70
47805;DHT22;33568;45.286;9.900;2023-11-21T11:43:33;15.50;90.00
47805;DHT22;33568;45.286;9.900;2023-11-21T11:46:06;15.40;90.30
47805;DHT22;33568;45.286;9.900;2023-11-21T11:48:40;15.20;90.60
47805;DHT22;33568;45.286;9.900;2023-11-21T11:51:12;15.10;90.90
47805;DHT22;33568;45.286;9.900;2023-11-21T11:53:47;15.00;91.10
47805;DHT22;33568;45.286;9.900;2023-11-21T11:56:32;15.00;91.30
47805;DHT22;33568;45.286;9.900;2023-11-21T11:59:04;15.00;91.40
47805;DHT22;33568;45.286;9.900;2023-11-21T12:01:33;14.90;91.60
47805;DHT22;33568;45.286;9.900;2023-11-21T12:06:46;14.90;91.90
47805;DHT22;33568;45.286;9.900;2023-11-21T12:09:19;14.80;92.10
47805;DHT22;33568;45.286;9.900;2023-11-21T12:11:48;14.80;92.20
47805;DHT22;33568;45.286;9.900;2023-11-21T12:14:15;14.80;92.30
47805;DHT22;33568;45.286;9.900;2023-11-21T12:16:43;14.80;92.30
47805;DHT22;33568;45.286;9.900;2023-11-21T12:19:13;14.70;92.40
47805;DHT22;33568;45.286;9.900;2023-11-21T12:21:39;14.80;92.40
47805;DHT22;33568;45.286;9.900;2023-11-21T12:24:10;14.70;92.50
47805;DHT22;33568;45.286;9.900;2023-11-21T12:26:40;14.70;92.50
47805;DHT22;33568;45.286;9.900;2023-11-21T12:29:07;14.70;92.60
47805;DHT22;33568;45.286;9.900;2023-11-21T12:31:36;14.70;92.70
47805;DHT22;33568;45.286;9.900;2023-11-21T12:34:03;14.70;92.80
47805;DHT22;33568;45.286;9.900;2023-11-21T12:36:30;14.70;92.90
47805;DHT22;33568;45.286;9.900;2023-11-21T12:38:57;14.70;93.00
47805;DHT22;33568;45.286;9.900;2023-11-21T12:41:24;14.60;93.10
47805;DHT22;33568;45.286;9.900;2023-11-21T12:43:50;14.70;93.20
47805;DHT22;33568;45.286;9.900;2023-11-21T12:46:17;14.60;93.40
47805;DHT22;33568;45.286;9.900;2023-11-21T12:48:44;14.70;93.40
47805;DHT22;33568;45.286;9.900;2023-11-21T12:51:12;14.70;93.30
47805;DHT22;33568;45.286;9.900;2023-11-21T12:53:41;14.70;93.20
47805;DHT22;33568;45.286;9.900;2023-11-21T12:56:10;14.80;93.30
47805;DHT22;33568;45.286;9.900;2023-11-21T12:58:37;14.80;93.40
47805;DHT22;33568;45.286;9.900;2023-11-21T13:01:06;14.80;93.40
47805;DHT22;33568;45.286;9.900;2023-11-21T13:03:38;14.80;93.40
47805;DHT22;33568;45.286;9.900;2023-11-21T13:06:06;14.80;93.50
47805;DHT22;33568;45.286;9.900;2023-11-21T13:08:34;14.80;93.50
47805;DHT22;33568;45.286;9.900;2023-11-21T13:11:00;14.80;93.60
47805;DHT22;33568;45.286;9.900;2023-11-21T13:13:30;14.80;93.60
47805;DHT22;33568;45.286;9.900;2023-11-21T13:16:00;14.80;93.80
47805;DHT22;33568;45.286;9.900;2023-11-21T13:18:28;14.90;93.70
47805;DHT22;33568;45.286;9.900;2023-11-21T13:20:55;15.00;93.60
47805;DHT22;33568;45.286;9.900;2023-11-21T13:23:22;15.00;93.60
47805;DHT22;33568;45.286;9.900;2023-11-21T13:25:50;15.10;93.60
47805;DHT22;33568;45.286;9.900;2023-11-21T13:28:17;15.10;93.50
47805;DHT22;33568;45.286;9.900;2023-11-21T13:30:48;15.10;93.50
47805;DHT22;33568;45.286;9.900;2023-11-21T13:33:14;15.00;93.50
47805;DHT22;33568;45.286;9.900;2023-11-21T13:35:48;14.90;93.60
47805;DHT22;33568;45.286;9.900;2023-11-21T13:38:17;14.90;93.60
47805;DHT22;33568;45.286;9.900;2023-11-21T13:40:48;15.00;93.60
47805;DHT22;33568;45.286;9.900;2023-11-21T13:43:17;15.00;93.50
47805;DHT22;33568;45.286;9.900;2023-11-21T13:45:49;15.00;93.60
47805;DHT22;33568;45.286;9.900;2023-11-21T13:48:26;15.00;93.60
47805;DHT22;33568;45.286;9.900;2023-11-21T13:51:01;15.00;93.70
47805;DHT22;33568;45.286;9.900;2023-11-21T13:53:36;15.00;93.70
47805;DHT22;33568;45.286;9.900;2023-11-21T13:56:05;15.00;93.80
47805;DHT22;33568;45.286;9.900;2023-11-21T13:58:31;15.00;93.70
47805;DHT22;33568;45.286;9.900;2023-11-21T14:01:18;15.10;93.60
47805;DHT22;33568;45.286;9.900;2023-11-21T14:04:11;15.10;93.60
47805;DHT22;33568;45.286;9.900;2023-11-21T14:06:45;15.10;93.60
47805;DHT22;33568;45.286;9.900;2023-11-21T14:09:16;15.10;93.60
47805;DHT22;33568;45.286;9.900;2023-11-21T14:11:53;15.10;93.50
47805;DHT22;33568;45.286;9.900;2023-11-21T14:14:21;15.10;93.70
47805;DHT22;33568;45.286;9.900;2023-11-21T14:16:47;15.10;93.50
47805;DHT22;33568;45.286;9.900;2023-11-21T14:19:14;15.20;93.40
47805;DHT22;33568;45.286;9.900;2023-11-21T14:21:44;15.10;93.40
47805;DHT22;33568;45.286;9.900;2023-11-21T14:24:11;15.10;93.60
47805;DHT22;33568;45.286;9.900;2023-11-21T14:26:44;15.00;93.50
47805;DHT22;33568;45.286;9.900;2023-11-21T14:29:15;15.00;93.60
47805;DHT22;33568;45.286;9.900;2023-11-21T14:31:49;15.00;93.60
47805;DHT22;33568;45.286;9.900;2023-11-21T14:34:23;15.00;93.60
47805;DHT22;33568;45.286;9.900;2023-11-21T14:36:50;15.00;93.60
47805;DHT22;33568;45.286;9.900;2023-11-21T14:39:17;15.00;93.60
47805;DHT22;33568;45.286;9.900;2023-11-21T14:41:50;15.00;93.60
47805;DHT22;33568;45.286;9.900;2023-11-21T14:44:17;14.90;93.60
47805;DHT22;33568;45.286;9.900;2023-11-21T14:46:43;14.90;93.70
47805;DHT22;33568;45.286;9.900;2023-11-21T14:49:15;14.80;93.80
47805;DHT22;33568;45.286;9.900;2023-11-21T14:51:52;14.80;93.90
47805;DHT22;33568;45.286;9.900;2023-11-21T14:54:30;14.80;93.80
47805;DHT22;33568;45.286;9.900;2023-11-21T14:57:10;14.70;93.90
47805;DHT22;33568;45.286;9.900;2023-11-21T14:59:49;14.70;94.00
47805;DHT22;33568;45.286;9.900;2023-11-21T15:02:20;14.70;94.10
47805;DHT22;33568;45.286;9.900;2023-11-21T15:04:48;14.60;94.20
47805;DHT22;33568;45.286;9.900;2023-11-21T15:07:18;14.50;94.50
47805;DHT22;33568;45.286;9.900;2023-11-21T15:09:45;14.50;94.30
47805;DHT22;33568;45.286;9.900;2023-11-21T15:12:12;14.40;94.20
47805;DHT22;33568;45.286;9.900;2023-11-21T15:17:12;14.30;94.40
47805;DHT22;33568;45.286;9.900;2023-11-21T15:19:48;14.20;94.50
47805;DHT22;33568;45.286;9.900;2023-11-21T15:22:16;14.20;94.90
47805;DHT22;33568;45.286;9.900;2023-11-21T15:24:43;14.10;94.80
47805;DHT22;33568;45.286;9.900;2023-11-21T15:27:13;14.10;94.80
47805;DHT22;33568;45.286;9.900;2023-11-21T15:29:40;14.00;94.90
47805;DHT22;33568;45.286;9.900;2023-11-21T15:32:07;14.00;95.00
47805;DHT22;33568;45.286;9.900;2023-11-21T15:34:35;13.90;95.10
47805;DHT22;33568;45.286;9.900;2023-11-21T15:37:02;13.80;95.20
47805;DHT22;33568;45.286;9.900;2023-11-21T15:39:29;13.80;95.30
47805;DHT22;33568;45.286;9.900;2023-11-21T15:41:58;13.80;95.40
47805;DHT22;33568;45.286;9.900;2023-11-21T15:44:25;13.70;95.50
47805;DHT22;33568;45.286;9.900;2023-11-21T15:46:53;13.60;95.50
47805;DHT22;33568;45.286;9.900;2023-11-21T15:49:20;13.60;95.60
47805;DHT22;33568;45.286;9.900;2023-11-21T15:51:49;13.50;95.60